메인 페이지
METAR-TAF:

METAR-TAF

공항 :

Dothan, 앨라배마, 미국

위도: 31-19-17N, 경도: 085-26-59W, 고도: 122m

현재 날씨관측

예보는 50분 전, 13:53시(UTC)에 발표되었습니다.
7kt
온도 27°C
습도 70%
기압 1019 hPa
시정: 16.1km
고도 6000ft 상공 구름 조금

METAR: KDHN 291353Z 18007KT 10SM FEW060 27/21 A3009 RMK AO2 SLP182 T02670206

시각: 09:43 (14:43 UTC)

예보

예보는 3 시간 23분 전, 11:20시(UTC)에 발표되었습니다.
예보 대상 시간: 29일 12시부터 30일 12시까지 (UTC)
남남서4kt
시정: 10km
고도 10000ft 상공 구름 보통
고도 25000ft 상공 구름 많음
29일 1400시부터 (UTC)
남남서5kt
시정: 10km
고도 3500ft 상공 구름 많음
29일 1800시부터 (UTC)
남남서6kt
시정: 3.2km
고도 3000ft 상공 구름 많음, 적란운.
뇌우, 비
30일 0000시부터 (UTC)
남남서4kt
시정: 10km
고도 4000ft 상공 구름 많음
확률 30%
30일 00시부터 30일 03시까지 (UTC)
시정: 6.4km
고도 3000ft 상공 구름 많음, 적란운.
뇌우, 비

TAF: KDHN 291120Z 2912/3012 20004KT P6SM SCT100 BKN250 FM291400 20005KT P6SM BKN035 FM291800 20006KT 2SM TSRA BKN030CB FM300000 20004KT P6SM BKN040 PROB30 3000/3003 4SM TSRA BKN030CB

4,000개 이상의 공항 관측 자료 및 예보 (METAR 및 TAF 보고).

지도상에서 검색 가능한 기상관측소가 노란 점과 빨간 점으로 표시되어 있습니다.

기상관측소 명을 보려면 표시 위로 마우스를 이동하세요.

날씨 관측과 예보를 보려면 클릭하세요.

지도 변경 : 확대하려면 엑스 표시가 있는 녹색 버튼, 축소하려면 빼기 표시가 있는 녹색 버튼, 다음 페이지의 지도를 보려면 녹색 화살표를 클릭하세요.


METAR-TAF: